Time;durP1;ratioP1;P1;durP2;ratioP2;P2;SDS_P1;SDS_P2;PMS_P1;PMS_P2;Temp;Humidity;BMP_temperature;BMP_pressure;BME280_temperature;BME280_humidity;BME280_pressure;Samples;Min_cycle;Max_cycle;Signal;HPM_P1;HPM_P2
2022/09/18 00:00:04;;;;;;;;;;;19.30;70.70;;;;;;5024192;28;87180;-43
2022/09/18 00:02:30;;;;;;;;;;;19.20;70.60;;;;;;5023887;28;89044;-43
2022/09/18 00:04:56;;;;;;;;;;;19.30;70.60;;;;;;5022687;28;90341;-43
2022/09/18 00:07:21;;;;;;;;;;;19.30;70.60;;;;;;5023604;28;87115;-43
2022/09/18 00:09:47;;;;;;;;;;;19.30;70.50;;;;;;5023684;28;87401;-43
2022/09/18 00:12:12;;;;;;;;;;;19.30;70.50;;;;;;5023157;28;88081;-43
2022/09/18 00:14:38;;;;;;;;;;;19.30;70.50;;;;;;5026513;28;87103;-43
2022/09/18 00:17:03;;;;;;;;;;;19.20;70.60;;;;;;5023390;28;88091;-43
2022/09/18 00:19:29;;;;;;;;;;;19.20;70.50;;;;;;5023888;28;86945;-43
2022/09/18 00:21:54;;;;;;;;;;;19.20;70.50;;;;;;5023719;28;86664;-43
2022/09/18 00:24:22;;;;;;;;;;;19.20;70.60;;;;;;5023339;28;88042;-43
2022/09/18 00:26:47;;;;;;;;;;;19.20;70.60;;;;;;5023298;28;87118;-43
2022/09/18 00:29:13;;;;;;;;;;;19.20;70.60;;;;;;5022875;28;87649;-43
2022/09/18 00:31:39;;;;;;;;;;;19.20;70.60;;;;;;5023081;28;88258;-43
2022/09/18 00:34:07;;;;;;;;;;;19.20;70.60;;;;;;5023393;28;87354;-43
2022/09/18 00:36:34;;;;;;;;;;;19.20;71.20;;;;;;5025623;28;88916;-43
2022/09/18 00:39:00;;;;;;;;;;;19.20;70.60;;;;;;5023148;28;87124;-43
2022/09/18 00:41:27;;;;;;;;;;;19.20;70.70;;;;;;5023468;28;86901;-44
2022/09/18 00:43:55;;;;;;;;;;;19.20;70.60;;;;;;5022918;28;87245;-43
2022/09/18 00:46:32;;;;;;;;;;;19.10;70.50;;;;;;5023389;28;86388;-43
2022/09/18 00:49:10;;;;;;;;;;;19.10;70.60;;;;;;5023035;28;87087;-44
2022/09/18 00:51:36;;;;;;;;;;;19.20;70.60;;;;;;5022216;28;87623;-44
2022/09/18 00:54:08;;;;;;;;;;;19.10;70.50;;;;;;5022516;28;88133;-44
2022/09/18 00:56:34;;;;;;;;;;;19.10;70.60;;;;;;5023056;28;87496;-44
2022/09/18 00:58:59;;;;;;;;;;;19.10;70.60;;;;;;5025589;28;87596;-43
2022/09/18 01:01:25;;;;;;;;;;;19.10;70.50;;;;;;5022751;28;87697;-43
2022/09/18 01:03:50;;;;;;;;;;;19.10;70.50;;;;;;5022278;28;88091;-43
2022/09/18 01:06:21;;;;;;;;;;;19.10;70.60;;;;;;5022838;28;87030;-43
2022/09/18 01:08:53;;;;;;;;;;;19.10;70.50;;;;;;5022898;28;87359;-43
2022/09/18 01:11:31;;;;;;;;;;;19.10;70.60;;;;;;5023068;28;87278;-43
2022/09/18 01:14:11;;;;;;;;;;;19.10;70.60;;;;;;5022544;28;87151;-43
2022/09/18 01:16:48;;;;;;;;;;;19.00;70.50;;;;;;5022929;28;87369;-43
2022/09/18 01:19:29;;;;;;;;;;;19.00;70.40;;;;;;5021741;28;88991;-43
2022/09/18 01:21:57;;;;;;;;;;;19.00;70.40;;;;;;5025328;28;87075;-43
2022/09/18 01:24:31;;;;;;;;;;;19.00;70.50;;;;;;5022324;28;88545;-44
2022/09/18 01:27:05;;;;;;;;;;;19.00;70.50;;;;;;5022382;28;87032;-43
2022/09/18 01:29:39;;;;;;;;;;;19.00;70.40;;;;;;5022568;28;87235;-43
2022/09/18 01:32:07;;;;;;;;;;;19.00;70.30;;;;;;5022145;28;87953;-43
2022/09/18 01:34:36;;;;;;;;;;;19.00;70.20;;;;;;5022503;28;87563;-43
2022/09/18 01:37:22;;;;;;;;;;;19.00;70.10;;;;;;5022886;28;86618;-44
2022/09/18 01:40:00;;;;;;;;;;;19.00;70.10;;;;;;5021385;28;89967;-43
2022/09/18 01:42:27;;;;;;;;;;;18.90;70.00;;;;;;5022659;28;86876;-43
2022/09/18 01:44:54;;;;;;;;;;;19.00;70.00;;;;;;5024378;28;87778;-44
2022/09/18 01:47:21;;;;;;;;;;;18.90;69.90;;;;;;5022179;28;87119;-43
2022/09/18 01:49:48;;;;;;;;;;;18.90;70.00;;;;;;5022276;28;86976;-43
2022/09/18 01:52:18;;;;;;;;;;;18.90;70.00;;;;;;5021918;28;87895;-43
2022/09/18 01:54:46;;;;;;;;;;;18.90;70.00;;;;;;5022145;28;87107;-43
2022/09/18 01:57:13;;;;;;;;;;;18.80;69.80;;;;;;5022126;28;87510;-43
2022/09/18 01:59:48;;;;;;;;;;;18.80;69.70;;;;;;5021859;28;87886;-43
2022/09/18 02:02:33;;;;;;;;;;;18.80;69.50;;;;;;5024490;28;86276;-44
2022/09/18 02:05:01;;;;;;;;;;;18.80;69.60;;;;;;5017785;28;87097;-44
2022/09/18 02:07:35;;;;;;;;;;;18.80;69.70;;;;;;5028153;28;87944;-44
2022/09/18 02:10:02;;;;;;;;;;;18.80;69.60;;;;;;5024606;28;87970;-44
2022/09/18 02:12:28;;;;;;;;;;;18.70;69.50;;;;;;5024872;28;89901;-44
2022/09/18 02:14:56;;;;;;;;;;;18.70;69.50;;;;;;5025311;28;87077;-43
2022/09/18 02:17:25;;;;;;;;;;;18.70;69.20;;;;;;5025525;28;87218;-44
2022/09/18 02:19:53;;;;;;;;;;;18.70;69.40;;;;;;5025055;28;89512;-44
2022/09/18 02:22:20;;;;;;;;;;;18.70;69.50;;;;;;5025108;28;87055;-44
2022/09/18 02:24:47;;;;;;;;;;;18.60;69.20;;;;;;5025358;28;87259;-44
2022/09/18 02:27:13;;;;;;;;;;;18.70;69.20;;;;;;5028042;28;88494;-44
2022/09/18 02:29:41;;;;;;;;;;;18.60;69.20;;;;;;5025242;28;87056;-44
2022/09/18 02:32:07;;;;;;;;;;;18.60;69.20;;;;;;5025296;28;88082;-44
2022/09/18 02:34:33;;;;;;;;;;;18.60;69.20;;;;;;5024605;28;88056;-44
2022/09/18 02:37:01;;;;;;;;;;;18.60;69.10;;;;;;5025383;28;88730;-44
2022/09/18 02:39:32;;;;;;;;;;;18.50;69.10;;;;;;5024893;28;87984;-44
2022/09/18 02:42:16;;;;;;;;;;;18.60;69.00;;;;;;5024750;28;87103;-43
2022/09/18 02:44:47;;;;;;;;;;;18.60;69.00;;;;;;5025399;28;87105;-44
2022/09/18 02:47:23;;;;;;;;;;;18.60;69.00;;;;;;5024939;28;88001;-44
2022/09/18 02:49:55;;;;;;;;;;;18.60;68.90;;;;;;5028317;28;86936;-43
2022/09/18 02:52:28;;;;;;;;;;;18.50;68.80;;;;;;5025250;28;87328;-44
2022/09/18 02:54:56;;;;;;;;;;;18.50;68.90;;;;;;5024781;28;87135;-44
2022/09/18 02:57:39;;;;;;;;;;;18.40;69.00;;;;;;5024742;28;87023;-44
2022/09/18 03:00:06;;;;;;;;;;;18.50;68.80;;;;;;5024006;28;89186;-44
2022/09/18 03:02:32;;;;;;;;;;;18.50;68.70;;;;;;5024451;28;87082;-43
2022/09/18 03:04:57;;;;;;;;;;;18.50;68.40;;;;;;5024441;28;88821;-44
2022/09/18 03:07:23;;;;;;;;;;;18.40;68.40;;;;;;5024357;28;87358;-44
2022/09/18 03:09:48;;;;;;;;;;;18.40;68.40;;;;;;5024542;28;86966;-44
2022/09/18 03:12:15;;;;;;;;;;;18.40;68.30;;;;;;5027443;28;86959;-44
2022/09/18 03:14:41;;;;;;;;;;;18.40;68.10;;;;;;5023939;28;87087;-43
2022/09/18 03:17:08;;;;;;;;;;;18.40;68.10;;;;;;5025085;28;87502;-44
2022/09/18 03:19:33;;;;;;;;;;;18.40;68.70;;;;;;5024248;28;88130;-44
2022/09/18 03:21:58;;;;;;;;;;;18.30;67.90;;;;;;5024170;28;87198;-44
2022/09/18 03:24:24;;;;;;;;;;;18.30;67.90;;;;;;5024003;28;87780;-44
2022/09/18 03:26:50;;;;;;;;;;;18.30;67.90;;;;;;5024269;28;87822;-44
2022/09/18 03:29:16;;;;;;;;;;;18.30;67.60;;;;;;5024432;28;87192;-44
2022/09/18 03:31:41;;;;;;;;;;;18.30;67.70;;;;;;5024699;28;87449;-43
2022/09/18 03:34:07;;;;;;;;;;;18.30;67.60;;;;;;5026672;28;88170;-43
2022/09/18 03:36:32;;;;;;;;;;;18.30;67.50;;;;;;5024208;28;87355;-43
2022/09/18 03:38:58;;;;;;;;;;;18.20;67.50;;;;;;5024133;28;88155;-43
2022/09/18 03:41:23;;;;;;;;;;;18.20;67.30;;;;;;5024670;28;86338;-43
2022/09/18 03:43:49;;;;;;;;;;;18.20;67.30;;;;;;5024372;28;86895;-43
2022/09/18 03:46:21;;;;;;;;;;;18.20;67.10;;;;;;5023863;28;87976;-43
2022/09/18 03:48:47;;;;;;;;;;;18.20;67.20;;;;;;5023392;28;87963;-43
2022/09/18 03:51:12;;;;;;;;;;;18.20;67.30;;;;;;5024300;28;88160;-43
2022/09/18 03:53:38;;;;;;;;;;;18.20;67.70;;;;;;5023564;28;89288;-43
2022/09/18 03:56:04;;;;;;;;;;;18.10;67.00;;;;;;5027065;28;87262;-43
2022/09/18 03:58:29;;;;;;;;;;;18.10;67.00;;;;;;5023801;28;88018;-43
2022/09/18 04:00:55;;;;;;;;;;;18.10;67.00;;;;;;5023697;28;87046;-43
2022/09/18 04:03:21;;;;;;;;;;;18.10;66.90;;;;;;5023736;28;87462;-43
2022/09/18 04:05:47;;;;;;;;;;;18.10;66.90;;;;;;5023554;28;87905;-43
2022/09/18 04:08:13;;;;;;;;;;;18.10;66.80;;;;;;5023458;28;87355;-43
2022/09/18 04:10:38;;;;;;;;;;;18.10;66.60;;;;;;5024019;28;87365;-43
2022/09/18 04:13:04;;;;;;;;;;;18.00;66.50;;;;;;5022833;28;88382;-43
2022/09/18 04:15:29;;;;;;;;;;;18.00;66.50;;;;;;5023678;28;87101;-43
2022/09/18 04:17:55;;;;;;;;;;;18.00;66.50;;;;;;5026236;28;87326;-43
2022/09/18 04:20:20;;;;;;;;;;;18.00;66.40;;;;;;5023363;28;87225;-43
2022/09/18 04:22:46;;;;;;;;;;;18.00;66.60;;;;;;5023672;28;87435;-43
2022/09/18 04:25:11;;;;;;;;;;;18.00;66.30;;;;;;5023148;28;86885;-43
2022/09/18 04:27:37;;;;;;;;;;;18.00;66.40;;;;;;5023585;28;87117;-43
2022/09/18 04:30:02;;;;;;;;;;;18.00;66.30;;;;;;5024151;28;87519;-43
2022/09/18 04:32:28;;;;;;;;;;;18.00;66.20;;;;;;5023074;28;88022;-43
2022/09/18 04:34:53;;;;;;;;;;;18.00;66.20;;;;;;5023141;28;87106;-43
2022/09/18 04:37:19;;;;;;;;;;;18.00;66.20;;;;;;5025526;28;87765;-43
2022/09/18 04:39:45;;;;;;;;;;;18.00;66.20;;;;;;5023298;28;87098;-43
2022/09/18 04:42:11;;;;;;;;;;;18.00;66.10;;;;;;5023203;28;87552;-43
2022/09/18 04:44:37;;;;;;;;;;;18.00;66.20;;;;;;5022666;28;88648;-43
2022/09/18 04:47:03;;;;;;;;;;;17.90;66.20;;;;;;5023246;28;87087;-43
2022/09/18 04:49:28;;;;;;;;;;;17.90;66.20;;;;;;5023121;28;87416;-43
2022/09/18 04:51:54;;;;;;;;;;;17.90;66.10;;;;;;5022786;28;87872;-43
2022/09/18 04:54:19;;;;;;;;;;;17.90;66.00;;;;;;5022132;28;86507;-43
2022/09/18 04:56:45;;;;;;;;;;;17.90;66.10;;;;;;5022961;28;87089;-43
2022/09/18 04:59:10;;;;;;;;;;;17.90;66.20;;;;;;5025578;28;87687;-43
2022/09/18 05:01:36;;;;;;;;;;;17.80;66.20;;;;;;5022379;28;87883;-43
2022/09/18 05:04:01;;;;;;;;;;;17.90;66.10;;;;;;5022264;28;89786;-43
2022/09/18 05:06:27;;;;;;;;;;;17.90;66.10;;;;;;5023081;28;87130;-43
2022/09/18 05:08:52;;;;;;;;;;;17.90;66.10;;;;;;5022785;28;87383;-43
2022/09/18 05:11:18;;;;;;;;;;;17.80;66.00;;;;;;5022846;28;88020;-43
2022/09/18 05:13:46;;;;;;;;;;;17.80;66.00;;;;;;5022828;28;87026;-43
2022/09/18 05:16:12;;;;;;;;;;;17.80;65.90;;;;;;5022587;28;87569;-43
2022/09/18 05:18:37;;;;;;;;;;;17.80;65.90;;;;;;5022963;28;87039;-43
2022/09/18 05:21:04;;;;;;;;;;;17.80;65.90;;;;;;5025541;28;87216;-43
2022/09/18 05:23:29;;;;;;;;;;;17.80;66.00;;;;;;5021832;28;89800;-43
2022/09/18 05:25:55;;;;;;;;;;;17.80;66.00;;;;;;5021889;28;88061;-43
2022/09/18 05:28:20;;;;;;;;;;;17.70;65.90;;;;;;5022763;28;88357;-43
2022/09/18 05:30:46;;;;;;;;;;;17.70;66.00;;;;;;5022257;28;88143;-43
2022/09/18 05:33:11;;;;;;;;;;;17.80;65.80;;;;;;5022479;28;87112;-43
2022/09/18 05:35:38;;;;;;;;;;;17.80;65.80;;;;;;5022304;28;87569;-43
2022/09/18 05:38:04;;;;;;;;;;;17.70;65.90;;;;;;5021407;28;89358;-43
2022/09/18 05:40:34;;;;;;;;;;;17.70;65.80;;;;;;5022498;28;87212;-43
2022/09/18 05:43:01;;;;;;;;;;;17.70;65.70;;;;;;5025434;28;87256;-43
2022/09/18 05:45:27;;;;;;;;;;;17.70;65.70;;;;;;5022323;28;87099;-43
2022/09/18 05:47:59;;;;;;;;;;;17.70;65.70;;;;;;5022357;28;87544;-43
2022/09/18 05:50:26;;;;;;;;;;;17.70;65.70;;;;;;5021299;28;89301;-43
2022/09/18 05:52:59;;;;;;;;;;;17.60;65.60;;;;;;5022448;28;87540;-43
2022/09/18 05:55:24;;;;;;;;;;;17.60;65.50;;;;;;5022111;28;87399;-43
2022/09/18 05:57:50;;;;;;;;;;;17.60;65.40;;;;;;5022258;28;88061;-43
2022/09/18 06:00:16;;;;;;;;;;;17.60;65.30;;;;;;5022259;28;86809;-43
2022/09/18 06:02:41;;;;;;;;;;;17.60;65.30;;;;;;5022028;28;87360;-43
2022/09/18 06:05:09;;;;;;;;;;;17.60;65.10;;;;;;5024731;28;86989;-43
2022/09/18 06:07:34;;;;;;;;;;;17.60;65.10;;;;;;5022687;28;87352;-43
2022/09/18 06:10:00;;;;;;;;;;;17.60;65.20;;;;;;5021560;28;88173;-43
2022/09/18 06:12:25;;;;;;;;;;;17.60;65.30;;;;;;5022180;28;87386;-43
2022/09/18 06:14:51;;;;;;;;;;;17.60;65.30;;;;;;5021879;28;88230;-43
2022/09/18 06:17:16;;;;;;;;;;;17.50;65.30;;;;;;5021511;28;87638;-43
2022/09/18 06:19:42;;;;;;;;;;;17.60;65.40;;;;;;5022037;28;87082;-43
2022/09/18 06:22:07;;;;;;;;;;;17.50;65.40;;;;;;5021850;28;86950;-43
2022/09/18 06:24:33;;;;;;;;;;;17.50;65.40;;;;;;5021642;28;88160;-43
2022/09/18 06:26:58;;;;;;;;;;;17.50;65.30;;;;;;5024926;28;87023;-43
2022/09/18 06:29:24;;;;;;;;;;;17.50;65.40;;;;;;5021789;28;88055;-43
2022/09/18 06:31:49;;;;;;;;;;;17.50;65.30;;;;;;5022390;28;86320;-43
2022/09/18 06:34:15;;;;;;;;;;;17.50;65.20;;;;;;5021727;28;87060;-43
2022/09/18 06:36:41;;;;;;;;;;;17.50;65.30;;;;;;5021398;28;88008;-43
2022/09/18 06:39:06;;;;;;;;;;;17.50;65.20;;;;;;5021129;28;88131;-43
2022/09/18 06:41:32;;;;;;;;;;;17.50;65.20;;;;;;5021789;28;88095;-43
2022/09/18 06:43:57;;;;;;;;;;;17.50;65.10;;;;;;5021592;28;88018;-43
2022/09/18 06:46:23;;;;;;;;;;;17.40;65.20;;;;;;5024741;28;86818;-43
2022/09/18 06:48:49;;;;;;;;;;;17.50;65.10;;;;;;5022182;28;87815;-43
2022/09/18 06:51:14;;;;;;;;;;;17.40;65.30;;;;;;5025060;28;87118;-43
2022/09/18 06:53:40;;;;;;;;;;;17.40;65.20;;;;;;5024979;28;87686;-43
2022/09/18 06:56:05;;;;;;;;;;;17.40;65.10;;;;;;5025110;28;86486;-43
2022/09/18 06:58:31;;;;;;;;;;;17.40;65.10;;;;;;5024793;28;87059;-43
2022/09/18 07:00:58;;;;;;;;;;;17.40;65.00;;;;;;5024946;28;87278;-43
2022/09/18 07:03:23;;;;;;;;;;;17.40;65.10;;;;;;5023539;28;89030;-43
2022/09/18 07:05:49;;;;;;;;;;;17.30;65.10;;;;;;5024940;28;87258;-43
2022/09/18 07:08:14;;;;;;;;;;;17.30;65.10;;;;;;5027014;28;87010;-43
2022/09/18 07:10:40;;;;;;;;;;;17.30;64.80;;;;;;5024883;28;86923;-43
2022/09/18 07:13:06;;;;;;;;;;;17.30;64.70;;;;;;5024608;28;87438;-43
2022/09/18 07:15:32;;;;;;;;;;;17.30;65.00;;;;;;5024416;28;87957;-43
2022/09/18 07:17:58;;;;;;;;;;;17.20;64.70;;;;;;5024673;28;87086;-43
2022/09/18 07:20:24;;;;;;;;;;;17.30;64.80;;;;;;5025177;28;87380;-43
2022/09/18 07:22:54;;;;;;;;;;;17.20;64.50;;;;;;5023776;28;87179;-43
2022/09/18 07:25:20;;;;;;;;;;;17.20;64.60;;;;;;5024448;28;86882;-43
2022/09/18 07:27:46;;;;;;;;;;;17.30;64.60;;;;;;5023927;28;87871;-43
2022/09/18 07:30:12;;;;;;;;;;;17.20;64.50;;;;;;5026985;28;87962;-43
2022/09/18 07:32:37;;;;;;;;;;;17.20;64.50;;;;;;5023980;28;87705;-43
2022/09/18 07:35:03;;;;;;;;;;;17.30;64.40;;;;;;5023996;28;88197;-43
2022/09/18 07:37:29;;;;;;;;;;;17.20;64.50;;;;;;5024377;28;87072;-43
2022/09/18 07:39:54;;;;;;;;;;;17.20;64.40;;;;;;5024215;28;87399;-43
2022/09/18 07:42:20;;;;;;;;;;;17.10;64.50;;;;;;5023926;28;88151;-43
2022/09/18 07:44:45;;;;;;;;;;;17.10;64.70;;;;;;5024725;28;86366;-43
2022/09/18 07:47:11;;;;;;;;;;;17.10;64.70;;;;;;5024164;28;87146;-43
2022/09/18 07:49:37;;;;;;;;;;;17.00;64.40;;;;;;5023571;28;87971;-43
2022/09/18 07:52:03;;;;;;;;;;;17.00;64.60;;;;;;5026427;28;87952;-43
2022/09/18 07:54:29;;;;;;;;;;;17.00;64.60;;;;;;5023748;28;87978;-43
2022/09/18 07:56:55;;;;;;;;;;;17.10;64.60;;;;;;5024098;28;87134;-43
2022/09/18 07:59:21;;;;;;;;;;;17.00;64.50;;;;;;5023494;28;87017;-43
2022/09/18 08:01:47;;;;;;;;;;;17.00;64.70;;;;;;5023600;28;87978;-43
2022/09/18 08:04:12;;;;;;;;;;;17.00;64.60;;;;;;5023751;28;87079;-43
2022/09/18 08:06:38;;;;;;;;;;;17.00;64.60;;;;;;5023964;28;87204;-43
2022/09/18 08:09:03;;;;;;;;;;;17.00;64.50;;;;;;5023603;28;87286;-43
2022/09/18 08:11:29;;;;;;;;;;;16.90;64.70;;;;;;5023758;28;86995;-43
2022/09/18 08:13:54;;;;;;;;;;;16.90;64.50;;;;;;5026254;28;87603;-43
2022/09/18 08:16:20;;;;;;;;;;;17.00;64.60;;;;;;5023201;28;87966;-43
2022/09/18 08:18:46;;;;;;;;;;;17.00;64.40;;;;;;5023346;28;88270;-43
2022/09/18 08:21:12;;;;;;;;;;;17.00;64.40;;;;;;5023199;28;87949;-43
2022/09/18 08:23:37;;;;;;;;;;;17.00;64.50;;;;;;5023361;28;87091;-42
2022/09/18 08:26:03;;;;;;;;;;;17.00;64.50;;;;;;5023451;28;86954;-43
2022/09/18 08:28:28;;;;;;;;;;;17.00;64.50;;;;;;5023293;28;88117;-43
2022/09/18 08:30:55;;;;;;;;;;;17.00;64.50;;;;;;5023456;28;86993;-43
2022/09/18 08:33:20;;;;;;;;;;;16.90;64.60;;;;;;5026289;28;87471;-43
2022/09/18 08:35:46;;;;;;;;;;;16.90;64.60;;;;;;5023368;28;87151;-43
2022/09/18 08:38:12;;;;;;;;;;;16.90;64.50;;;;;;5023402;28;87509;-43
2022/09/18 08:40:46;;;;;;;;;;;16.90;64.60;;;;;;5022309;28;89038;-43
2022/09/18 08:43:11;;;;;;;;;;;16.90;64.70;;;;;;5023334;28;87039;-43
2022/09/18 08:45:37;;;;;;;;;;;16.90;64.70;;;;;;5023321;28;87352;-43
2022/09/18 08:48:10;;;;;;;;;;;16.90;64.80;;;;;;5022946;28;87952;-43
2022/09/18 08:50:38;;;;;;;;;;;16.90;64.70;;;;;;5023270;28;86962;-43
2022/09/18 08:53:15;;;;;;;;;;;16.90;64.70;;;;;;5023236;28;87344;-43
2022/09/18 08:55:43;;;;;;;;;;;16.80;64.90;;;;;;5025742;28;88124;-43
2022/09/18 08:58:13;;;;;;;;;;;16.80;65.00;;;;;;5023428;28;87498;-43
2022/09/18 09:00:46;;;;;;;;;;;16.80;64.90;;;;;;5022671;28;87890;-43
2022/09/18 09:03:21;;;;;;;;;;;16.90;64.80;;;;;;5022773;28;87130;-43
2022/09/18 09:05:50;;;;;;;;;;;16.80;64.60;;;;;;5022363;28;88061;-43
2022/09/18 09:08:24;;;;;;;;;;;16.80;64.70;;;;;;5021890;28;87964;-43
2022/09/18 09:11:04;;;;;;;;;;;16.90;64.70;;;;;;5021724;28;87081;-43
2022/09/18 09:13:39;;;;;;;;;;;16.90;64.60;;;;;;5023005;28;87236;-43
2022/09/18 09:16:07;;;;;;;;;;;16.80;64.60;;;;;;5022521;28;88273;-43
2022/09/18 09:18:38;;;;;;;;;;;16.80;64.60;;;;;;5025900;28;87115;-43
2022/09/18 09:21:16;;;;;;;;;;;16.80;64.60;;;;;;5022515;28;88034;-43
2022/09/18 09:23:44;;;;;;;;;;;16.80;64.60;;;;;;5022684;28;86490;-43
2022/09/18 09:26:11;;;;;;;;;;;16.80;64.50;;;;;;5022702;28;87130;-43
2022/09/18 09:28:47;;;;;;;;;;;16.80;64.40;;;;;;5022405;28;88257;-43
2022/09/18 09:31:14;;;;;;;;;;;16.80;64.50;;;;;;5022068;28;87945;-43
2022/09/18 09:34:03;;;;;;;;;;;16.80;64.50;;;;;;5022376;28;88351;-43
2022/09/18 09:36:29;;;;;;;;;;;16.70;64.60;;;;;;5016133;28;87694;-43
2022/09/18 09:39:04;;;;;;;;;;;16.80;64.60;;;;;;5022559;28;86903;-43
2022/09/18 09:41:40;;;;;;;;;;;16.80;64.50;;;;;;5025146;28;87331;-43
2022/09/18 09:44:24;;;;;;;;;;;16.80;64.40;;;;;;5022474;28;87078;-43
2022/09/18 09:46:53;;;;;;;;;;;16.80;64.30;;;;;;5022405;28;87104;-43
2022/09/18 09:49:39;;;;;;;;;;;16.80;64.20;;;;;;5022425;28;86372;-43
2022/09/18 09:52:11;;;;;;;;;;;16.80;64.30;;;;;;5014231;28;87168;-43
2022/09/18 09:54:36;;;;;;;;;;;16.80;64.30;;;;;;5022435;28;86935;-43
2022/09/18 09:57:21;;;;;;;;;;;16.80;64.20;;;;;;5021042;28;89270;-43
2022/09/18 09:59:54;;;;;;;;;;;16.80;64.10;;;;;;5022284;28;87034;-43
2022/09/18 10:02:43;;;;;;;;;;;16.70;64.20;;;;;;5022381;28;87367;-43
2022/09/18 10:05:09;;;;;;;;;;;16.70;64.20;;;;;;5024962;28;87196;-43
2022/09/18 10:07:43;;;;;;;;;;;16.70;64.30;;;;;;5022131;28;87418;-43
2022/09/18 10:10:29;;;;;;;;;;;16.70;64.40;;;;;;5021582;28;87928;-43
2022/09/18 10:12:57;;;;;;;;;;;16.70;64.50;;;;;;5013381;28;87741;-43
2022/09/18 10:15:27;;;;;;;;;;;16.60;64.40;;;;;;5022441;28;87310;-43
2022/09/18 10:17:55;;;;;;;;;;;16.60;64.40;;;;;;5021386;28;88213;-43
2022/09/18 10:20:26;;;;;;;;;;;16.60;64.60;;;;;;5021887;28;87039;-43
2022/09/18 10:22:51;;;;;;;;;;;16.60;64.50;;;;;;5022697;28;88113;-43
2022/09/18 10:25:17;;;;;;;;;;;16.60;64.40;;;;;;5025024;28;88107;-43
2022/09/18 10:27:42;;;;;;;;;;;16.60;64.50;;;;;;5028160;28;87204;-43
2022/09/18 10:30:12;;;;;;;;;;;16.60;64.50;;;;;;5025207;28;88183;-43
2022/09/18 10:32:40;;;;;;;;;;;16.60;64.50;;;;;;5025408;28;87086;-43
2022/09/18 10:35:24;;;;;;;;;;;16.50;64.60;;;;;;5025084;28;87422;-43
2022/09/18 10:37:50;;;;;;;;;;;16.50;64.50;;;;;;5025037;28;87866;-43
2022/09/18 10:40:31;;;;;;;;;;;16.60;64.60;;;;;;5025838;28;86373;-43
2022/09/18 10:42:57;;;;;;;;;;;16.50;64.60;;;;;;5025114;28;87284;-43
2022/09/18 10:45:24;;;;;;;;;;;16.50;64.70;;;;;;5025023;28;88191;-43
2022/09/18 10:48:02;;;;;;;;;;;16.50;64.60;;;;;;5027280;28;88145;-43
2022/09/18 10:50:27;;;;;;;;;;;16.50;64.80;;;;;;5024826;28;88209;-43
2022/09/18 10:52:53;;;;;;;;;;;16.50;64.90;;;;;;5024866;28;87100;-43
2022/09/18 10:55:23;;;;;;;;;;;16.40;64.80;;;;;;5025055;28;87420;-43
2022/09/18 10:58:24;;;;;;;;;;;16.40;64.90;;;;;;5024364;28;88207;-43
2022/09/18 11:01:01;;;;;;;;;;;16.40;64.80;;;;;;4982565;28;87090;-43
2022/09/18 11:03:29;;;;;;;;;;;16.40;65.00;;;;;;5019316;28;87617;-43
2022/09/18 11:06:00;;;;;;;;;;;16.40;65.00;;;;;;5024638;28;87806;-43
2022/09/18 11:08:29;;;;;;;;;;;16.40;64.90;;;;;;5024173;28;87115;-43
2022/09/18 11:11:18;;;;;;;;;;;16.30;64.90;;;;;;5027246;28;87452;-43
2022/09/18 11:13:56;;;;;;;;;;;16.30;65.00;;;;;;5017881;28;88051;-43
2022/09/18 11:16:23;;;;;;;;;;;16.30;65.00;;;;;;5024785;28;88342;-43
2022/09/18 11:18:59;;;;;;;;;;;16.40;64.90;;;;;;5024493;28;88003;-43
2022/09/18 11:21:24;;;;;;;;;;;16.30;64.90;;;;;;5024695;28;86948;-43
2022/09/18 11:24:00;;;;;;;;;;;16.30;64.80;;;;;;5024679;28;87566;-43
2022/09/18 11:26:26;;;;;;;;;;;16.30;64.90;;;;;;5024201;28;88158;-43
2022/09/18 11:29:01;;;;;;;;;;;16.30;65.00;;;;;;5024277;28;87091;-43
2022/09/18 11:31:37;;;;;;;;;;;16.30;65.00;;;;;;5025039;28;87358;-43
2022/09/18 11:34:03;;;;;;;;;;;16.20;65.20;;;;;;5026085;28;88200;-43
2022/09/18 11:36:30;;;;;;;;;;;16.20;65.20;;;;;;5024494;28;87012;-43
2022/09/18 11:38:57;;;;;;;;;;;16.30;65.20;;;;;;5023363;28;89094;-43
2022/09/18 11:41:24;;;;;;;;;;;16.30;65.10;;;;;;5024010;28;87101;-43
2022/09/18 11:44:16;;;;;;;;;;;16.30;65.20;;;;;;5024319;28;87499;-43
2022/09/18 11:47:03;;;;;;;;;;;16.20;65.20;;;;;;5021675;28;88246;-43
2022/09/18 11:49:37;;;;;;;;;;;16.20;65.20;;;;;;5024344;28;86941;-43
2022/09/18 11:52:15;;;;;;;;;;;16.20;65.30;;;;;;5024271;28;87431;-43
2022/09/18 11:54:50;;;;;;;;;;;16.20;65.40;;;;;;5023720;28;86920;-43
2022/09/18 11:57:18;;;;;;;;;;;16.30;65.30;;;;;;5027586;28;86242;-43
2022/09/18 11:59:50;;;;;;;;;;;16.30;65.30;;;;;;5023597;28;87890;-43
2022/09/18 12:02:19;;;;;;;;;;;16.30;65.30;;;;;;5024171;28;86919;-43
2022/09/18 12:05:03;;;;;;;;;;;16.30;65.30;;;;;;5023218;28;87805;-43
2022/09/18 12:07:54;;;;;;;;;;;16.30;65.20;;;;;;5023599;28;88922;-43
2022/09/18 12:10:23;;;;;;;;;;;16.30;65.30;;;;;;5023898;28;86963;-43
2022/09/18 12:13:15;;;;;;;;;;;16.20;65.30;;;;;;5023214;28;87008;-43
2022/09/18 12:15:43;;;;;;;;;;;16.20;65.90;;;;;;5006342;28;87964;-43
2022/09/18 12:18:11;;;;;;;;;;;16.20;65.30;;;;;;5023774;28;87074;-43
2022/09/18 12:20:45;;;;;;;;;;;16.20;65.30;;;;;;5026128;28;87285;-43
2022/09/18 12:23:15;;;;;;;;;;;16.20;65.30;;;;;;5023856;28;87574;-43
2022/09/18 12:25:41;;;;;;;;;;;16.30;65.10;;;;;;5023435;28;87096;-43
2022/09/18 12:28:33;;;;;;;;;;;16.30;65.20;;;;;;5023194;28;88000;-43
2022/09/18 12:31:04;;;;;;;;;;;16.20;65.20;;;;;;5020136;28;87943;-43
2022/09/18 12:33:38;;;;;;;;;;;16.20;65.20;;;;;;5023507;28;88208;-43
2022/09/18 12:36:22;;;;;;;;;;;16.20;65.20;;;;;;5023298;28;87352;-43
2022/09/18 12:39:00;;;;;;;;;;;16.20;65.30;;;;;;5023463;28;87059;-43
2022/09/18 12:41:31;;;;;;;;;;;16.20;65.30;;;;;;5023357;28;87475;-42
2022/09/18 12:44:06;;;;;;;;;;;16.30;65.10;;;;;;5026014;28;88163;-43
2022/09/18 12:46:59;;;;;;;;;;;16.30;65.00;;;;;;5023288;28;86958;-43
2022/09/18 12:49:43;;;;;;;;;;;16.20;65.00;;;;;;5023447;28;87033;-43
2022/09/18 12:52:19;;;;;;;;;;;16.20;65.10;;;;;;5023099;28;87164;-43
2022/09/18 12:55:03;;;;;;;;;;;16.20;65.00;;;;;;5022938;28;87420;-43
2022/09/18 12:57:47;;;;;;;;;;;16.20;65.10;;;;;;5022139;28;88877;-43
2022/09/18 13:00:13;;;;;;;;;;;16.20;65.20;;;;;;5023304;28;87216;-43
2022/09/18 13:02:39;;;;;;;;;;;16.20;65.10;;;;;;5023112;28;87051;-43
2022/09/18 13:05:25;;;;;;;;;;;16.10;65.10;;;;;;5025242;28;87959;-43
2022/09/18 13:07:56;;;;;;;;;;;16.20;65.10;;;;;;5014587;28;87409;-43
2022/09/18 13:10:25;;;;;;;;;;;16.20;65.10;;;;;;5022761;28;87308;-43
2022/09/18 13:12:51;;;;;;;;;;;16.20;65.20;;;;;;5022899;28;87092;-43
2022/09/18 13:15:22;;;;;;;;;;;16.20;65.20;;;;;;5023505;28;87203;-43
2022/09/18 13:17:50;;;;;;;;;;;16.20;65.20;;;;;;5022486;28;87304;-43
2022/09/18 13:20:19;;;;;;;;;;;16.20;65.20;;;;;;5022828;28;86968;-43
2022/09/18 13:22:45;;;;;;;;;;;16.20;65.10;;;;;;5021899;28;87862;-43
2022/09/18 13:25:20;;;;;;;;;;;16.20;65.20;;;;;;5022216;28;88274;-43
2022/09/18 13:27:45;;;;;;;;;;;16.20;65.50;;;;;;5025594;28;86942;-43
2022/09/18 13:30:21;;;;;;;;;;;16.20;65.20;;;;;;5022168;28;88215;-43
2022/09/18 13:32:46;;;;;;;;;;;16.20;65.30;;;;;;5022642;28;86927;-43
2022/09/18 13:35:12;;;;;;;;;;;16.20;65.30;;;;;;5022758;28;87316;-43
2022/09/18 13:37:38;;;;;;;;;;;16.10;65.80;;;;;;5022172;28;87301;-43
2022/09/18 13:40:08;;;;;;;;;;;16.10;65.20;;;;;;5023191;28;86655;-43
2022/09/18 13:42:41;;;;;;;;;;;16.10;65.30;;;;;;5022385;28;87137;-43
2022/09/18 13:45:18;;;;;;;;;;;16.10;65.40;;;;;;5022042;28;88413;-43
2022/09/18 13:48:03;;;;;;;;;;;16.10;65.30;;;;;;5021588;28;88021;-43
2022/09/18 13:50:30;;;;;;;;;;;16.10;65.40;;;;;;5025102;28;88309;-43
2022/09/18 13:52:56;;;;;;;;;;;16.10;65.40;;;;;;5022144;28;87261;-43
2022/09/18 13:55:24;;;;;;;;;;;16.00;65.50;;;;;;5022241;28;87199;-43
2022/09/18 13:57:51;;;;;;;;;;;16.00;65.50;;;;;;5023159;28;87960;-43
2022/09/18 14:00:19;;;;;;;;;;;16.10;65.50;;;;;;5025790;28;87094;-43
2022/09/18 14:02:48;;;;;;;;;;;16.10;65.40;;;;;;5025871;28;87044;-43
2022/09/18 14:05:31;;;;;;;;;;;16.10;65.50;;;;;;5025888;28;87340;-43
2022/09/18 14:08:31;;;;;;;;;;;16.10;65.40;;;;;;5024707;28;87161;-43
2022/09/18 14:11:00;;;;;;;;;;;16.00;65.60;;;;;;5025371;28;87671;-43
2022/09/18 14:13:28;;;;;;;;;;;16.00;65.60;;;;;;5027408;28;88987;-43
2022/09/18 14:16:12;;;;;;;;;;;16.00;65.60;;;;;;5025761;28;88415;-42
2022/09/18 14:18:46;;;;;;;;;;;16.00;65.50;;;;;;5025258;28;87639;-43
2022/09/18 14:21:14;;;;;;;;;;;16.10;65.40;;;;;;5025320;28;87339;-43
2022/09/18 14:23:46;;;;;;;;;;;16.10;65.40;;;;;;5025270;28;87250;-43
2022/09/18 14:26:34;;;;;;;;;;;16.00;65.50;;;;;;5025131;28;87849;-43
2022/09/18 14:29:09;;;;;;;;;;;16.00;65.60;;;;;;5025535;28;86833;-43